Hauptseite
METAR-TAF:

METAR-TAF

Flughäfen :

Flughafen Grenchen

Grenchen, Schweiz

Breite: 47-10-53N, Länge: 007-24-59E, Höhe: 430 m

Beobachtung

Neuester Wetterbericht von vor 27 Minuten, um 18:20 UTC
Wind 4 kt aus Nord/Nordost
Temperatur 22°C
Luftfeuchtigkeit 65%
Luftdruck 1019 hPa
Sichtweite 10 km oder mehr
keine Wolken unter 1500 m und keine Kumulonimbus oder Gewitterwolken

METAR: LSZG 061820Z 03004KT CAVOK 22/15 Q1019 NOSIG

Zeit: 20:47 (18:47 UTC)

Prognose

Neuester Wetterbericht von vor 4 Stunden und 22 Minuten, um 14:25 UTC
Gültige Prognose vom 06 um 15 UTC bis 06 um 24 UTC
Wind 6 kt aus Ost/Nordost
Sichtweite 10 km oder mehr
keine Wolken unter 1500 m und keine Kumulonimbus oder Gewitterwolken

TAF: LSZG 061425Z 0615/0624 07006KT CAVOK

Wetterbeobachtungen und Prognosen von mehr als 4000 Flughäfen (METAR und TAF Bericht).

Die verfügbaren Stationen werden durch gelbe und rote Markierungen auf der Karte dargestellt.

Führen Sie die Maus auf sie, um den Namen der Station zu sehen.

Darauf klicken, um die Beobachtung von Wetterbeobachtungen und Prognosen zu sehen.

Um die Karte zu ändern : klicken Sie auf den grünen Tasten mit einem schwarzen Kreuz Zum Vergrößern, auf den grünen Button mit einem Gedankenstrich zu verkleinern, oder auf die grünen Pfeile für benachbarte Karten.


METAR-TAF: